Time,TemperatureF,DewpointF,PressureIn,WindDirection,WindDirectionDegrees,WindSpeedMPH,WindSpeedGustMPH,Humidity,HourlyPrecipIn,Conditions,Clouds,dailyrainin,SoftwareType,DateUTC
2013-01-08 00:22:00,17.0,8.0,30.37,SSW,200,1.0,3.0,67,0.00,,,-99.99,,2013-01-08 08:22:00,
2013-01-08 00:32:00,17.0,8.0,30.37,SSW,200,1.0,3.0,67,0.00,,,-99.99,,2013-01-08 08:32:00,
2013-01-08 01:22:00,16.0,7.0,30.38,North,0,0.0,2.0,67,0.00,,,-99.99,,2013-01-08 09:22:00,
2013-01-08 01:32:00,16.0,7.0,30.38,North,0,0.0,2.0,67,0.00,,,-99.99,,2013-01-08 09:32:00,
2013-01-08 02:22:00,20.0,10.0,30.34,South,170,1.0,6.0,64,0.00,,,-99.99,,2013-01-08 10:22:00,
2013-01-08 02:32:00,20.0,10.0,30.34,South,170,1.0,6.0,64,0.00,,,-99.99,,2013-01-08 10:32:00,
2013-01-08 03:22:00,21.0,11.0,30.34,SSE,150,2.0,6.0,65,0.00,,,-99.99,,2013-01-08 11:22:00,
2013-01-08 03:32:00,21.0,11.0,30.34,SSE,150,2.0,6.0,65,0.00,,,-99.99,,2013-01-08 11:32:00,
2013-01-08 04:22:00,23.0,14.0,30.33,SSE,150,2.0,5.0,67,0.00,,,-99.99,,2013-01-08 12:22:00,
2013-01-08 04:32:00,23.0,14.0,30.33,SSE,150,2.0,5.0,67,0.00,,,-99.99,,2013-01-08 12:32:00,
2013-01-08 05:22:00,21.0,14.0,30.38,SE,140,1.0,3.0,74,0.00,,,-99.99,,2013-01-08 13:22:00,
2013-01-08 05:32:00,21.0,14.0,30.38,SE,140,1.0,3.0,74,0.00,,,-99.99,,2013-01-08 13:32:00,
2013-01-08 06:23:00,22.0,17.0,30.44,SE,140,1.0,3.0,80,0.00,,,-99.99,,2013-01-08 14:23:00,
2013-01-08 06:33:00,22.0,17.0,30.44,SE,140,1.0,3.0,80,0.00,,,-99.99,,2013-01-08 14:33:00,
2013-01-08 07:22:00,21.0,16.0,30.49,North,0,0.0,1.0,81,0.00,,,-99.99,,2013-01-08 15:22:00,
2013-01-08 08:22:00,24.0,18.0,30.51,North,0,0.0,4.0,78,0.00,,,-99.99,,2013-01-08 16:22:00,
2013-01-08 08:33:00,24.0,18.0,30.51,North,0,0.0,4.0,78,0.00,,,-99.99,,2013-01-08 16:33:00,
2013-01-08 09:23:00,36.0,24.0,30.45,South,180,2.0,3.0,62,0.00,,,-99.99,,2013-01-08 17:23:00,
2013-01-08 09:33:00,36.0,24.0,30.45,South,180,2.0,3.0,62,0.00,,,-99.99,,2013-01-08 17:33:00,
2013-01-08 10:23:00,46.0,18.0,30.39,SSE,150,2.0,7.0,32,0.00,,,-99.99,,2013-01-08 18:23:00,
2013-01-08 10:33:00,46.0,18.0,30.39,SSE,150,2.0,7.0,32,0.00,,,-99.99,,2013-01-08 18:33:00,
2013-01-08 10:43:00,46.0,18.0,30.39,SSE,150,2.0,7.0,32,0.00,,,-99.99,,2013-01-08 18:43:00,
2013-01-08 12:22:00,47.0,16.0,30.36,ENE,60,5.0,8.0,28,0.01,,,-99.99,,2013-01-08 20:22:00,
2013-01-08 12:33:00,47.0,16.0,30.36,ENE,60,5.0,8.0,28,0.01,,,-99.99,,2013-01-08 20:33:00,
2013-01-08 12:43:00,47.0,16.0,30.36,ENE,60,5.0,8.0,28,0.01,,,-99.99,,2013-01-08 20:43:00,
2013-01-08 13:22:00,47.0,15.0,30.33,ENE,70,6.0,8.0,27,0.00,,,-99.99,,2013-01-08 21:22:00,
2013-01-08 13:33:00,47.0,15.0,30.33,ENE,70,6.0,8.0,27,0.00,,,-99.99,,2013-01-08 21:33:00,
2013-01-08 13:43:00,47.0,15.0,30.33,ENE,70,6.0,8.0,27,0.00,,,-99.99,,2013-01-08 21:43:00,
2013-01-08 14:22:00,46.0,11.0,30.34,NE,40,6.0,11.0,24,0.00,,,-99.99,,2013-01-08 22:22:00,
2013-01-08 14:32:00,46.0,11.0,30.34,NE,40,6.0,11.0,24,0.00,,,-99.99,,2013-01-08 22:32:00,
2013-01-08 14:42:00,46.0,11.0,30.34,NE,40,6.0,11.0,24,0.00,,,-99.99,,2013-01-08 22:42:00,
2013-01-08 15:22:00,46.0,15.0,30.31,NE,50,4.0,7.0,28,0.00,,,-99.99,,2013-01-08 23:22:00,
2013-01-08 15:32:00,46.0,15.0,30.31,NE,50,4.0,7.0,28,0.00,,,-99.99,,2013-01-08 23:32:00,
2013-01-08 15:43:00,46.0,15.0,30.31,NE,50,4.0,7.0,28,0.00,,,-99.99,,2013-01-08 23:43:00,
2013-01-08 16:22:00,47.0,16.0,30.33,East,90,1.0,2.0,28,0.00,,,-99.99,,2013-01-09 00:22:00,
2013-01-08 16:32:00,47.0,16.0,30.33,East,90,1.0,2.0,28,0.00,,,-99.99,,2013-01-09 00:32:00,
2013-01-08 16:42:00,47.0,16.0,30.33,East,90,1.0,2.0,28,0.00,,,-99.99,,2013-01-09 00:42:00,
2013-01-08 17:22:00,40.0,19.0,30.39,North,0,0.0,2.0,42,0.00,,,-99.99,,2013-01-09 01:22:00,
2013-01-08 17:32:00,40.0,19.0,30.39,North,0,0.0,2.0,42,0.00,,,-99.99,,2013-01-09 01:32:00,
2013-01-08 17:42:00,40.0,19.0,30.39,North,0,0.0,2.0,42,0.00,,,-99.99,,2013-01-09 01:42:00,
2013-01-08 19:22:00,28.0,20.0,30.51,North,-999,0.0,0.0,70,0.00,,,-99.99,,2013-01-09 03:22:00,
2013-01-08 19:33:00,28.0,20.0,30.51,North,-999,0.0,0.0,70,0.00,,,-99.99,,2013-01-09 03:33:00,
2013-01-08 19:42:00,28.0,20.0,30.51,North,-999,0.0,0.0,70,0.00,,,-99.99,,2013-01-09 03:42:00,
2013-01-08 20:22:00,25.0,18.0,30.46,North,0,0.0,1.0,74,0.00,,,-99.99,,2013-01-09 04:22:00,
2013-01-08 20:32:00,25.0,18.0,30.46,North,0,0.0,1.0,74,0.00,,,-99.99,,2013-01-09 04:32:00,
2013-01-08 21:22:00,26.0,19.0,30.37,East,90,1.0,2.0,74,0.00,,,-99.99,,2013-01-09 05:22:00,
2013-01-08 21:33:00,26.0,19.0,30.37,East,90,1.0,2.0,74,0.00,,,-99.99,,2013-01-09 05:33:00,
2013-01-08 21:42:00,26.0,19.0,30.37,East,90,1.0,2.0,74,0.00,,,-99.99,,2013-01-09 05:42:00,
2013-01-08 22:22:00,24.0,18.0,30.38,North,-999,0.0,0.0,77,0.00,,,-99.99,,2013-01-09 06:22:00,
2013-01-08 22:32:00,24.0,18.0,30.38,North,-999,0.0,0.0,77,0.00,,,-99.99,,2013-01-09 06:32:00,
2013-01-08 22:42:00,24.0,18.0,30.38,North,-999,0.0,0.0,77,0.00,,,-99.99,,2013-01-09 06:42:00,
2013-01-08 23:32:00,22.0,16.0,30.39,North,0,0.0,1.0,79,0.00,,,-99.99,,2013-01-09 07:32:00,
2013-01-08 23:42:00,22.0,16.0,30.39,North,0,0.0,1.0,79,0.00,,,-99.99,,2013-01-09 07:42:00,